Pedernales — WDC2721 — position and weather

sailwx.info

Track history (hours):
 
Tides and Currents Weather Stations Pressure Air Temp Water Temp Dewpoint Dewpoint Depression Visibility Wind Speed Wind Dir Waves Ship Positions

Pedernales

Owner: Kirby Inland Marine, LP, Houston, TX. More information available from US FCC via Universal Licensing System and Coast Guard Vessel Documentation Center.

Last reported at 2017-Sep-21 22:25 UTC. Time now 2017-Sep-22 22:26 UTC.
Position N 29°46' W 095°07'.

Length 114 m; draft 2.9 m.

Type: . MMSI: 366996790.

Date/timePositionNaut miles runAvg speedWind from/ knotsBaromVisibWave heightAir tempDewpointWater temp
2017-Sep-21 22:25N 29°46' W 095°07'0 0.1
2017-Sep-21 21:56N 29°46' W 095°07'0 0.5
2017-Sep-21 21:25N 29°46' W 095°06'2 1.5
2017-Sep-21 20:16N 29°46' W 095°05'1 1.0
2017-Sep-21 18:52N 29°45' W 095°06'2 1.6
2017-Sep-21 17:25N 29°47' W 095°04'0 0.4
2017-Sep-21 16:24N 29°47' W 095°04'3 2.7
2017-Sep-21 15:25N 29°45' W 095°06'1 0.2
2017-Sep-21 10:13N 29°46' W 095°06'2 0.2
2017-Sep-21 01:29N 29°47' W 095°04'0 0.2
2017-Sep-21 00:37N 29°47' W 095°04'1 4.6
2017-Sep-21 00:23N 29°46' W 095°05'1 0.3
2017-Sep-20 20:50N 29°47' W 095°04'0 0.0
2017-Sep-20 20:24N 29°47' W 095°04'0 0.1
2017-Sep-20 20:00N 29°47' W 095°04'0 0.0
2017-Sep-20 17:34N 29°47' W 095°04'0 0.1
2017-Sep-20 17:29N 29°47' W 095°04'0 0.0
2017-Sep-20 16:55N 29°47' W 095°04'0 0.0
2017-Sep-20 16:25N 29°47' W 095°04'1 0.2
2017-Sep-20 09:54N 29°46' W 095°05'1 3.8
2017-Sep-20 09:31N 29°47' W 095°04'0 0.0
2017-Sep-20 08:59N 29°47' W 095°04'0 0.0
2017-Sep-20 08:18N 29°47' W 095°04'0 0.0
2017-Sep-20 07:55N 29°47' W 095°04'0 0.0
2017-Sep-20 07:30N 29°47' W 095°04'0 0.0
2017-Sep-20 07:00N 29°47' W 095°04'0 0.0
2017-Sep-20 06:26N 29°47' W 095°04'0 0.0
2017-Sep-20 06:01N 29°47' W 095°04'0 0.0
2017-Sep-20 05:29N 29°47' W 095°04'0 0.0
2017-Sep-20 05:00N 29°47' W 095°04'0 0.0
2017-Sep-20 04:30N 29°47' W 095°04'0 0.0
2017-Sep-20 03:59N 29°47' W 095°04'0 0.0
2017-Sep-20 03:29N 29°47' W 095°04'0 0.0
2017-Sep-20 03:00N 29°47' W 095°04'0 0.0
2017-Sep-20 02:30N 29°47' W 095°04'0 0.0
2017-Sep-20 01:56N 29°47' W 095°04'0 0.0
2017-Sep-20 01:29N 29°47' W 095°04'0 0.0
2017-Sep-20 00:59N 29°47' W 095°04'0 0.0
2017-Sep-20 00:27N 29°47' W 095°04'0 0.0
2017-Sep-19 23:59N 29°47' W 095°04'0 0.0
2017-Sep-19 23:28N 29°47' W 095°04'0 0.0
2017-Sep-19 23:00N 29°47' W 095°04'2 3.2
2017-Sep-19 22:29N 29°46' W 095°05'2 4.9
2017-Sep-19 21:59N 29°44' W 095°08'0 0.4
2017-Sep-19 21:23N 29°44' W 095°08'2 6.5
2017-Sep-19 21:00N 29°46' W 095°05'0 0.1
2017-Sep-19 17:13N 29°46' W 095°05'1 0.3
2017-Sep-19 12:04N 29°47' W 095°04'0 0.0
2017-Sep-19 11:34N 29°47' W 095°04'0 0.0
2017-Sep-19 11:10N 29°47' W 095°04'0 0.0
2017-Sep-19 10:49N 29°47' W 095°04'0 0.0
2017-Sep-19 10:19N 29°47' W 095°04'0 0.0
2017-Sep-19 08:40N 29°47' W 095°04'0 0.0
2017-Sep-19 08:16N 29°47' W 095°04'0 0.0
2017-Sep-19 07:37N 29°47' W 095°04'0 0.0
2017-Sep-19 07:19N 29°47' W 095°04'0 0.0
2017-Sep-19 06:49N 29°47' W 095°04'0 0.0
2017-Sep-19 06:10N 29°47' W 095°04'0 0.0
2017-Sep-19 05:55N 29°47' W 095°04'0 0.0
2017-Sep-19 04:19N 29°47' W 095°04'0 0.0
2017-Sep-18 23:58N 29°47' W 095°04'1 1.9
2017-Sep-18 23:19N 29°46' W 095°05'1 1.5
2017-Sep-18 22:57N 29°46' W 095°05'1 0.0
2017-Sep-18 10:05N 29°46' W 095°05'1 2.0
2017-Sep-18 09:49N 29°46' W 095°05'0 0.0
2017-Sep-16 11:09N 29°46' W 095°05'1 6.0
2017-Sep-16 10:58N 29°45' W 095°06'3 5.3
2017-Sep-16 10:25N 29°44' W 095°09'4 4.5
2017-Sep-16 09:36N 29°44' W 095°14'0 0.1
2017-Sep-16 09:24N 29°44' W 095°14'2 0.1
2017-Sep-15 14:18N 29°45' W 095°11'1 3.1
2017-Sep-15 13:57N 29°45' W 095°10'1 3.1
2017-Sep-15 13:30N 29°44' W 095°08'2 3.1
2017-Sep-15 12:59N 29°44' W 095°07'2 2.9
2017-Sep-15 12:24N 29°46' W 095°05'1 2.3
2017-Sep-15 11:50N 29°47' W 095°05'0 0.0
2017-Sep-15 10:59N 29°47' W 095°05'1 0.0
2017-Sep-14 05:35N 29°46' W 095°05'0 0.0
2017-Sep-13 20:43N 29°46' W 095°05'0 0.0
2017-Sep-12 08:06N 29°46' W 095°05'1 4.9
2017-Sep-12 07:57N 29°46' W 095°05'  
Track history (hours):
 
Tides and Currents Weather Stations Pressure Air Temp Water Temp Dewpoint Dewpoint Depression Visibility Wind Speed Wind Dir Waves Ship Positions

Pedernales

Owner: Kirby Inland Marine, LP, Houston, TX. More information available from US FCC via Universal Licensing System and Coast Guard Vessel Documentation Center.

Last reported at 2017-Sep-21 22:25 UTC. Time now 2017-Sep-22 22:26 UTC.
Position N 29°46' W 095°07'.

Length 114 m; draft 2.9 m.

Type: . MMSI: 366996790.

Date/timePositionNaut miles runAvg speedWind from/ knotsBaromVisibWave heightAir tempDewpointWater temp
2017-Sep-21 22:25N 29°46' W 095°07'0 0.1
2017-Sep-21 21:56N 29°46' W 095°07'0 0.5
2017-Sep-21 21:25N 29°46' W 095°06'2 1.5
2017-Sep-21 20:16N 29°46' W 095°05'1 1.0
2017-Sep-21 18:52N 29°45' W 095°06'2 1.6
2017-Sep-21 17:25N 29°47' W 095°04'0 0.4
2017-Sep-21 16:24N 29°47' W 095°04'3 2.7
2017-Sep-21 15:25N 29°45' W 095°06'1 0.2
2017-Sep-21 10:13N 29°46' W 095°06'2 0.2
2017-Sep-21 01:29N 29°47' W 095°04'0 0.2
2017-Sep-21 00:37N 29°47' W 095°04'1 4.6
2017-Sep-21 00:23N 29°46' W 095°05'1 0.3
2017-Sep-20 20:50N 29°47' W 095°04'0 0.0
2017-Sep-20 20:24N 29°47' W 095°04'0 0.1
2017-Sep-20 20:00N 29°47' W 095°04'0 0.0
2017-Sep-20 17:34N 29°47' W 095°04'0 0.1
2017-Sep-20 17:29N 29°47' W 095°04'0 0.0
2017-Sep-20 16:55N 29°47' W 095°04'0 0.0
2017-Sep-20 16:25N 29°47' W 095°04'1 0.2
2017-Sep-20 09:54N 29°46' W 095°05'1 3.8
2017-Sep-20 09:31N 29°47' W 095°04'0 0.0
2017-Sep-20 08:59N 29°47' W 095°04'0 0.0
2017-Sep-20 08:18N 29°47' W 095°04'0 0.0
2017-Sep-20 07:55N 29°47' W 095°04'0 0.0
2017-Sep-20 07:30N 29°47' W 095°04'0 0.0
2017-Sep-20 07:00N 29°47' W 095°04'0 0.0
2017-Sep-20 06:26N 29°47' W 095°04'0 0.0
2017-Sep-20 06:01N 29°47' W 095°04'0 0.0
2017-Sep-20 05:29N 29°47' W 095°04'0 0.0
2017-Sep-20 05:00N 29°47' W 095°04'0 0.0
2017-Sep-20 04:30N 29°47' W 095°04'0 0.0
2017-Sep-20 03:59N 29°47' W 095°04'0 0.0
2017-Sep-20 03:29N 29°47' W 095°04'0 0.0
2017-Sep-20 03:00N 29°47' W 095°04'0 0.0
2017-Sep-20 02:30N 29°47' W 095°04'0 0.0
2017-Sep-20 01:56N 29°47' W 095°04'0 0.0
2017-Sep-20 01:29N 29°47' W 095°04'0 0.0
2017-Sep-20 00:59N 29°47' W 095°04'0 0.0
2017-Sep-20 00:27N 29°47' W 095°04'0 0.0
2017-Sep-19 23:59N 29°47' W 095°04'0 0.0
2017-Sep-19 23:28N 29°47' W 095°04'0 0.0
2017-Sep-19 23:00N 29°47' W 095°04'2 3.2
2017-Sep-19 22:29N 29°46' W 095°05'2 4.9
2017-Sep-19 21:59N 29°44' W 095°08'0 0.4
2017-Sep-19 21:23N 29°44' W 095°08'2 6.5
2017-Sep-19 21:00N 29°46' W 095°05'0 0.1
2017-Sep-19 17:13N 29°46' W 095°05'1 0.3
2017-Sep-19 12:04N 29°47' W 095°04'0 0.0
2017-Sep-19 11:34N 29°47' W 095°04'0 0.0
2017-Sep-19 11:10N 29°47' W 095°04'0 0.0
2017-Sep-19 10:49N 29°47' W 095°04'0 0.0
2017-Sep-19 10:19N 29°47' W 095°04'0 0.0
2017-Sep-19 08:40N 29°47' W 095°04'0 0.0
2017-Sep-19 08:16N 29°47' W 095°04'0 0.0
2017-Sep-19 07:37N 29°47' W 095°04'0 0.0
2017-Sep-19 07:19N 29°47' W 095°04'0 0.0
2017-Sep-19 06:49N 29°47' W 095°04'0 0.0
2017-Sep-19 06:10N 29°47' W 095°04'0 0.0
2017-Sep-19 05:55N 29°47' W 095°04'0 0.0
2017-Sep-19 04:19N 29°47' W 095°04'0 0.0
2017-Sep-18 23:58N 29°47' W 095°04'1 1.9
2017-Sep-18 23:19N 29°46' W 095°05'1 1.5
2017-Sep-18 22:57N 29°46' W 095°05'1 0.0
2017-Sep-18 10:05N 29°46' W 095°05'1 2.0
2017-Sep-18 09:49N 29°46' W 095°05'0 0.0
2017-Sep-16 11:09N 29°46' W 095°05'1 6.0
2017-Sep-16 10:58N 29°45' W 095°06'3 5.3
2017-Sep-16 10:25N 29°44' W 095°09'4 4.5
2017-Sep-16 09:36N 29°44' W 095°14'0 0.1
2017-Sep-16 09:24N 29°44' W 095°14'2 0.1
2017-Sep-15 14:18N 29°45' W 095°11'1 3.1
2017-Sep-15 13:57N 29°45' W 095°10'1 3.1
2017-Sep-15 13:30N 29°44' W 095°08'2 3.1
2017-Sep-15 12:59N 29°44' W 095°07'2 2.9
2017-Sep-15 12:24N 29°46' W 095°05'1 2.3
2017-Sep-15 11:50N 29°47' W 095°05'0 0.0
2017-Sep-15 10:59N 29°47' W 095°05'1 0.0
2017-Sep-14 05:35N 29°46' W 095°05'0 0.0
2017-Sep-13 20:43N 29°46' W 095°05'0 0.0
2017-Sep-12 08:06N 29°46' W 095°05'1 4.9
2017-Sep-12 07:57N 29°46' W 095°05'  

Dump ship's entire track history